Time;durP1;ratioP1;P1;durP2;ratioP2;P2;SDS_P1;SDS_P2;PMS_P1;PMS_P2;Temp;Humidity;BMP_temperature;BMP_pressure;BME280_temperature;BME280_humidity;BME280_pressure;Samples;Min_cycle;Max_cycle;Signal;HPM_P1;HPM_P2
2023/05/30 00:00:56;;;;;;;6.80;3.55;;;;;;;;;;4982061;28;20030;-44
2023/05/30 00:03:21;;;;;;;6.22;3.08;;;;;;;;;;4988863;28;20172;-47
2023/05/30 00:05:47;;;;;;;3.65;3.05;;;;;;;;;;4985321;28;20038;-48
2023/05/30 00:08:12;;;;;;;4.32;3.22;;;;;;;;;;4985028;28;20566;-45
2023/05/30 00:10:37;;;;;;;3.50;3.20;;;;;;;;;;4981572;28;20026;-44
2023/05/30 00:13:03;;;;;;;4.30;3.03;;;;;;;;;;4983690;28;20033;-46
2023/05/30 00:15:28;;;;;;;3.28;2.92;;;;;;;;;;4986760;28;20042;-48
2023/05/30 00:17:54;;;;;;;7.43;3.58;;;;;;;;;;4982533;28;20042;-46
2023/05/30 00:20:22;;;;;;;3.75;3.35;;;;;;;;;;4985210;28;20154;-44
2023/05/30 00:22:48;;;;;;;4.07;3.20;;;;;;;;;;4983161;28;20057;-50
2023/05/30 00:25:14;;;;;;;4.97;3.30;;;;;;;;;;4984363;28;20034;-48
2023/05/30 00:27:40;;;;;;;4.25;3.20;;;;;;;;;;4982790;28;20069;-48
2023/05/30 00:30:06;;;;;;;3.50;3.20;;;;;;;;;;4985630;28;20081;-44
2023/05/30 00:32:31;;;;;;;4.28;3.30;;;;;;;;;;4980469;28;20606;-45
2023/05/30 00:34:56;;;;;;;6.05;3.10;;;;;;;;;;4983634;28;20034;-46
2023/05/30 00:37:22;;;;;;;3.50;3.20;;;;;;;;;;4984173;28;20120;-44
2023/05/30 00:39:47;;;;;;;4.78;2.97;;;;;;;;;;4983861;28;20026;-45
2023/05/30 00:42:13;;;;;;;3.50;3.00;;;;;;;;;;4984086;28;20058;-44
2023/05/30 00:44:38;;;;;;;3.58;2.67;;;;;;;;;;4983023;28;20026;-44
2023/05/30 00:47:04;;;;;;;3.58;3.28;;;;;;;;;;4981104;28;20387;-44
2023/05/30 00:49:29;;;;;;;3.38;3.08;;;;;;;;;;4985945;28;20109;-45
2023/05/30 00:51:55;;;;;;;3.10;2.90;;;;;;;;;;4980193;28;20035;-48
2023/05/30 00:54:22;;;;;;;7.63;3.10;;;;;;;;;;4980677;28;20041;-44
2023/05/30 00:56:47;;;;;;;4.40;3.17;;;;;;;;;;4983716;28;20104;-49
2023/05/30 00:59:13;;;;;;;3.40;3.10;;;;;;;;;;4984047;28;20038;-45
2023/05/30 01:01:39;;;;;;;7.22;3.15;;;;;;;;;;4981016;28;20403;-45
2023/05/30 01:04:05;;;;;;;5.13;3.03;;;;;;;;;;4984794;28;20035;-47
2023/05/30 01:06:30;;;;;;;5.25;3.35;;;;;;;;;;4984404;28;20040;-43
2023/05/30 01:09:00;;;;;;;6.22;2.92;;;;;;;;;;4982258;28;20037;-45
2023/05/30 01:11:40;;;;;;;5.30;3.40;;;;;;;;;;4982097;28;20070;-44
2023/05/30 01:14:43;;;;;;;3.47;3.20;;;;;;;;;;4982918;28;20033;-44
2023/05/30 01:17:17;;;;;;;4.43;2.60;;;;;;;;;;4983350;28;20072;-44
2023/05/30 01:19:58;;;;;;;3.35;3.10;;;;;;;;;;4984477;28;20085;-44
2023/05/30 01:22:37;;;;;;;4.28;3.00;;;;;;;;;;4983087;28;20189;-46
2023/05/30 01:25:22;;;;;;;4.32;2.97;;;;;;;;;;4981586;28;20041;-45
2023/05/30 01:28:07;;;;;;;4.28;3.05;;;;;;;;;;4982449;28;20058;-46
2023/05/30 01:30:51;;;;;;;3.83;3.50;;;;;;;;;;4984177;28;20089;-49
2023/05/30 01:33:19;;;;;;;3.50;2.78;;;;;;;;;;4983972;28;20073;-44
2023/05/30 01:35:45;;;;;;;6.82;3.20;;;;;;;;;;4979613;28;20097;-47
2023/05/30 01:38:11;;;;;;;8.20;3.20;;;;;;;;;;4984004;28;20446;-44
2023/05/30 01:40:38;;;;;;;3.30;3.00;;;;;;;;;;4984158;28;20034;-45
2023/05/30 01:43:18;;;;;;;6.60;3.15;;;;;;;;;;4984569;28;20064;-46
2023/05/30 01:45:58;;;;;;;3.25;3.00;;;;;;;;;;4986654;28;20046;-44
2023/05/30 01:48:42;;;;;;;3.53;3.22;;;;;;;;;;4989607;28;20030;-44
2023/05/30 01:51:12;;;;;;;4.30;2.75;;;;;;;;;;4988087;28;20074;-47
2023/05/30 01:53:45;;;;;;;6.03;3.25;;;;;;;;;;4986884;28;20030;-44
2023/05/30 01:56:14;;;;;;;3.17;2.88;;;;;;;;;;4986784;28;20055;-44
2023/05/30 01:58:40;;;;;;;5.25;3.05;;;;;;;;;;4983790;28;20030;-44
2023/05/30 02:01:08;;;;;;;3.40;3.10;;;;;;;;;;4988607;28;20039;-44
2023/05/30 02:03:33;;;;;;;3.30;3.00;;;;;;;;;;4986176;28;20399;-44
2023/05/30 02:06:00;;;;;;;3.08;2.78;;;;;;;;;;4986216;28;20035;-44
2023/05/30 02:08:26;;;;;;;3.50;3.20;;;;;;;;;;4987160;28;20070;-49
2023/05/30 02:10:51;;;;;;;4.40;3.13;;;;;;;;;;4986625;28;20439;-47
2023/05/30 02:13:17;;;;;;;3.97;3.05;;;;;;;;;;4987072;28;20637;-46
2023/05/30 02:15:42;;;;;;;3.05;2.85;;;;;;;;;;4985658;28;20050;-43
2023/05/30 02:18:08;;;;;;;4.03;3.15;;;;;;;;;;4988925;28;20046;-45
2023/05/30 02:20:33;;;;;;;3.38;3.08;;;;;;;;;;4986363;28;20038;-45
2023/05/30 02:22:59;;;;;;;3.20;2.90;;;;;;;;;;4981962;28;20022;-44
2023/05/30 02:25:24;;;;;;;6.10;3.13;;;;;;;;;;4983452;28;20026;-46
2023/05/30 02:27:50;;;;;;;3.20;2.90;;;;;;;;;;4988186;28;20412;-44
2023/05/30 02:30:16;;;;;;;3.13;2.83;;;;;;;;;;4985098;28;20026;-45
2023/05/30 02:32:42;;;;;;;3.72;2.85;;;;;;;;;;4984285;28;20527;-46
2023/05/30 02:35:08;;;;;;;4.80;3.17;;;;;;;;;;4984806;28;20034;-47
2023/05/30 02:37:33;;;;;;;6.88;3.28;;;;;;;;;;4982848;28;20049;-47
2023/05/30 02:39:59;;;;;;;3.60;2.90;;;;;;;;;;4985876;28;20031;-44
2023/05/30 02:42:25;;;;;;;3.70;2.63;;;;;;;;;;4987327;28;20038;-44
2023/05/30 02:44:50;;;;;;;3.92;3.00;;;;;;;;;;4986239;28;20096;-52
2023/05/30 02:47:16;;;;;;;5.07;3.22;;;;;;;;;;4983060;28;20042;-48
2023/05/30 02:49:41;;;;;;;3.50;3.20;;;;;;;;;;4986851;28;20495;-44
2023/05/30 02:52:07;;;;;;;4.88;2.83;;;;;;;;;;4980760;28;20042;-47
2023/05/30 02:54:32;;;;;;;5.65;3.25;;;;;;;;;;4986691;28;20026;-45
2023/05/30 02:56:58;;;;;;;3.67;3.03;;;;;;;;;;4986237;28;20514;-45
2023/05/30 02:59:23;;;;;;;3.22;2.72;;;;;;;;;;4985037;28;20030;-47
2023/05/30 03:01:49;;;;;;;3.05;2.85;;;;;;;;;;4988890;28;20042;-46
2023/05/30 03:04:14;;;;;;;3.22;2.88;;;;;;;;;;4985933;28;20081;-50
2023/05/30 03:06:40;;;;;;;4.15;3.25;;;;;;;;;;4984299;28;20404;-44
2023/05/30 03:09:05;;;;;;;4.30;3.00;;;;;;;;;;4983135;28;20161;-45
2023/05/30 03:11:31;;;;;;;8.75;3.15;;;;;;;;;;4982973;28;20112;-46
2023/05/30 03:13:56;;;;;;;3.28;3.00;;;;;;;;;;4986048;28;20410;-44
2023/05/30 03:16:22;;;;;;;3.33;3.00;;;;;;;;;;4986907;28;20034;-45
2023/05/30 03:18:49;;;;;;;3.25;3.00;;;;;;;;;;4982233;28;20526;-46
2023/05/30 03:21:15;;;;;;;3.45;3.15;;;;;;;;;;4985203;28;20065;-49
2023/05/30 03:23:40;;;;;;;3.92;3.25;;;;;;;;;;4982448;28;20022;-44
2023/05/30 03:26:09;;;;;;;3.53;2.63;;;;;;;;;;4985259;28;20525;-49
2023/05/30 03:28:34;;;;;;;3.55;2.85;;;;;;;;;;4982199;28;20038;-43
2023/05/30 03:31:00;;;;;;;3.13;2.92;;;;;;;;;;4982936;28;20050;-45
2023/05/30 03:33:28;;;;;;;9.23;3.05;;;;;;;;;;4985950;28;21191;-44
2023/05/30 03:35:53;;;;;;;6.63;3.15;;;;;;;;;;4983838;28;20117;-44
2023/05/30 03:38:20;;;;;;;3.72;3.40;;;;;;;;;;4979678;28;20166;-50
2023/05/30 03:40:46;;;;;;;4.45;3.13;;;;;;;;;;4985426;28;20054;-48
2023/05/30 03:43:11;;;;;;;3.63;2.92;;;;;;;;;;4985988;28;20380;-45
2023/05/30 03:45:36;;;;;;;7.22;3.00;;;;;;;;;;4983134;28;20049;-46
2023/05/30 03:48:02;;;;;;;6.10;3.70;;;;;;;;;;4983295;28;20038;-47
2023/05/30 03:50:27;;;;;;;7.95;3.22;;;;;;;;;;4984882;28;20114;-45
2023/05/30 03:52:53;;;;;;;3.63;3.20;;;;;;;;;;4982284;28;20035;-44
2023/05/30 03:55:18;;;;;;;3.05;2.85;;;;;;;;;;4984853;28;21485;-45
2023/05/30 03:57:43;;;;;;;3.50;3.20;;;;;;;;;;4985579;28;20047;-45
2023/05/30 04:00:09;;;;;;;4.65;2.90;;;;;;;;;;4985352;28;20502;-44
2023/05/30 04:02:35;;;;;;;5.35;2.95;;;;;;;;;;4984992;28;20042;-48
2023/05/30 04:05:00;;;;;;;3.70;2.83;;;;;;;;;;4981861;28;20014;-44
2023/05/30 04:07:27;;;;;;;3.40;3.10;;;;;;;;;;4984413;28;20041;-49
2023/05/30 04:09:52;;;;;;;3.55;3.05;;;;;;;;;;4982162;28;20109;-49
2023/05/30 04:12:18;;;;;;;3.83;3.17;;;;;;;;;;4981929;28;20575;-45
2023/05/30 04:14:43;;;;;;;4.97;3.00;;;;;;;;;;4981220;28;20042;-46
2023/05/30 04:17:08;;;;;;;2.88;2.63;;;;;;;;;;4984233;28;20046;-44
2023/05/30 04:19:34;;;;;;;4.03;2.67;;;;;;;;;;4983931;28;20034;-48
2023/05/30 04:21:59;;;;;;;3.47;2.90;;;;;;;;;;4981815;28;20984;-47
2023/05/30 04:24:25;;;;;;;3.58;2.88;;;;;;;;;;4983860;28;20057;-44
2023/05/30 04:26:50;;;;;;;3.60;3.08;;;;;;;;;;4985601;28;20092;-45
2023/05/30 04:29:19;;;;;;;3.58;2.88;;;;;;;;;;5016063;28;20384;-44
2023/05/30 04:31:45;;;;;;;5.40;3.00;;;;;;;;;;4982824;28;20035;-45
2023/05/30 04:34:11;;;;;;;3.95;3.22;;;;;;;;;;4986848;28;20699;-44
2023/05/30 04:36:36;;;;;;;3.47;3.17;;;;;;;;;;4984334;28;20672;-44
2023/05/30 04:39:02;;;;;;;4.53;2.97;;;;;;;;;;4977458;28;20055;-44
2023/05/30 04:41:27;;;;;;;5.20;3.08;;;;;;;;;;4981790;28;20104;-44
2023/05/30 04:43:57;;;;;;;3.08;2.83;;;;;;;;;;4983086;28;20561;-45
2023/05/30 04:46:23;;;;;;;3.10;2.90;;;;;;;;;;4983651;28;20035;-51
2023/05/30 04:48:53;;;;;;;3.30;3.00;;;;;;;;;;4981068;28;20526;-44
2023/05/30 04:51:23;;;;;;;5.22;3.08;;;;;;;;;;4982401;28;20105;-48
2023/05/30 04:53:49;;;;;;;3.42;3.15;;;;;;;;;;4982228;28;20593;-44
2023/05/30 04:56:15;;;;;;;3.08;2.88;;;;;;;;;;4979778;28;20043;-44
2023/05/30 04:58:40;;;;;;;6.32;2.80;;;;;;;;;;4983721;28;20522;-46
2023/05/30 05:01:09;;;;;;;4.78;2.80;;;;;;;;;;4979548;28;20042;-44
2023/05/30 05:03:36;;;;;;;4.50;3.08;;;;;;;;;;4976893;28;20034;-47
2023/05/30 05:06:02;;;;;;;5.00;3.10;;;;;;;;;;4972186;28;20053;-45
2023/05/30 05:08:29;;;;;;;8.10;2.72;;;;;;;;;;4968909;28;20042;-44
2023/05/30 05:10:54;;;;;;;3.30;3.00;;;;;;;;;;4972993;28;20080;-44
2023/05/30 05:13:20;;;;;;;6.53;3.10;;;;;;;;;;4979655;28;20061;-46
2023/05/30 05:15:45;;;;;;;3.35;3.05;;;;;;;;;;4981443;28;21016;-45
2023/05/30 05:18:11;;;;;;;3.22;2.97;;;;;;;;;;4979039;28;20054;-45
2023/05/30 05:20:36;;;;;;;3.10;2.90;;;;;;;;;;4982707;28;20089;-43
2023/05/30 05:23:01;;;;;;;6.40;2.83;;;;;;;;;;4984195;28;20579;-44
2023/05/30 05:25:27;;;;;;;5.45;3.08;;;;;;;;;;4980224;28;20031;-49
2023/05/30 05:27:52;;;;;;;3.00;2.80;;;;;;;;;;4975931;28;20121;-45
2023/05/30 05:30:18;;;;;;;4.28;2.80;;;;;;;;;;4971921;28;20034;-44
2023/05/30 05:32:44;;;;;;;5.45;2.90;;;;;;;;;;4977855;28;20031;-48
2023/05/30 05:35:09;;;;;;;3.35;3.05;;;;;;;;;;4972944;28;20534;-47
2023/05/30 05:37:35;;;;;;;6.28;3.15;;;;;;;;;;4973049;28;20035;-45
2023/05/30 05:40:04;;;;;;;4.03;2.90;;;;;;;;;;4969905;28;20030;-43
2023/05/30 05:42:29;;;;;;;3.90;2.88;;;;;;;;;;4974805;28;20053;-47
2023/05/30 05:44:55;;;;;;;2.97;2.75;;;;;;;;;;4973530;28;20030;-43
2023/05/30 05:47:20;;;;;;;4.70;3.10;;;;;;;;;;4979525;28;20768;-44
2023/05/30 05:49:45;;;;;;;8.32;2.70;;;;;;;;;;4979694;28;20101;-43
2023/05/30 05:52:11;;;;;;;2.95;2.65;;;;;;;;;;4982144;28;20039;-46
2023/05/30 05:54:36;;;;;;;4.18;2.90;;;;;;;;;;4982840;28;20113;-46
2023/05/30 05:57:01;;;;;;;3.50;3.00;;;;;;;;;;4975574;28;20542;-48
2023/05/30 05:59:27;;;;;;;4.82;3.10;;;;;;;;;;4980161;28;20407;-49
2023/05/30 06:01:52;;;;;;;7.10;2.95;;;;;;;;;;4979679;28;20089;-47
2023/05/30 06:04:18;;;;;;;3.50;3.20;;;;;;;;;;4970873;28;20050;-44
2023/05/30 06:06:44;;;;;;;3.60;2.90;;;;;;;;;;4974551;28;20395;-43
2023/05/30 06:09:10;;;;;;;3.30;3.00;;;;;;;;;;4967636;28;20042;-46
2023/05/30 06:11:35;;;;;;;3.63;2.90;;;;;;;;;;4971667;28;20050;-45
2023/05/30 06:14:01;;;;;;;3.05;2.75;;;;;;;;;;5005948;28;20038;-45
2023/05/30 06:16:26;;;;;;;3.10;2.90;;;;;;;;;;4973281;28;20047;-47
2023/05/30 06:18:51;;;;;;;3.10;2.85;;;;;;;;;;4974065;28;20038;-46
2023/05/30 06:21:17;;;;;;;4.65;2.90;;;;;;;;;;4984593;28;20117;-47
2023/05/30 06:23:42;;;;;;;4.95;3.13;;;;;;;;;;4982983;28;20407;-44
2023/05/30 06:26:07;;;;;;;3.60;3.22;;;;;;;;;;4982591;28;20078;-46
2023/05/30 06:28:33;;;;;;;10.05;3.55;;;;;;;;;;4985861;28;20112;-46
2023/05/30 06:30:58;;;;;;;6.93;2.90;;;;;;;;;;4985088;28;20070;-45
2023/05/30 06:33:24;;;;;;;3.17;2.90;;;;;;;;;;4986030;28;20089;-46
2023/05/30 06:35:49;;;;;;;3.72;3.03;;;;;;;;;;4985927;28;20046;-44
2023/05/30 06:38:17;;;;;;;3.15;2.88;;;;;;;;;;4984726;28;20483;-49
2023/05/30 06:40:43;;;;;;;3.60;2.97;;;;;;;;;;4984693;28;20042;-45
2023/05/30 06:43:08;;;;;;;4.60;2.78;;;;;;;;;;4980667;28;20513;-43
2023/05/30 06:45:33;;;;;;;4.78;3.00;;;;;;;;;;4982844;28;20026;-43
2023/05/30 06:48:01;;;;;;;3.10;2.70;;;;;;;;;;4983305;28;20030;-47
2023/05/30 06:50:26;;;;;;;6.82;2.63;;;;;;;;;;4982337;28;20041;-43
2023/05/30 06:52:52;;;;;;;3.65;3.00;;;;;;;;;;4987289;28;20113;-43
2023/05/30 06:55:17;;;;;;;4.53;3.00;;;;;;;;;;4984588;28;20026;-43
2023/05/30 06:57:48;;;;;;;2.95;2.72;;;;;;;;;;4985372;28;20549;-45
2023/05/30 07:00:15;;;;;;;5.47;3.45;;;;;;;;;;4983231;28;20050;-47
2023/05/30 07:02:40;;;;;;;5.03;2.90;;;;;;;;;;4985148;28;20097;-47
2023/05/30 07:05:06;;;;;;;3.03;2.83;;;;;;;;;;4986094;28;20034;-43
2023/05/30 07:07:31;;;;;;;3.65;2.95;;;;;;;;;;4985643;28;20046;-47
2023/05/30 07:09:57;;;;;;;4.15;3.10;;;;;;;;;;4983748;28;20430;-50
2023/05/30 07:12:22;;;;;;;3.75;2.90;;;;;;;;;;4978107;28;20031;-47
2023/05/30 07:14:47;;;;;;;3.90;2.90;;;;;;;;;;4980685;28;20525;-48
2023/05/30 07:17:13;;;;;;;7.22;2.88;;;;;;;;;;4985265;28;20141;-49
2023/05/30 07:19:40;;;;;;;7.72;2.97;;;;;;;;;;4983236;28;20051;-51
2023/05/30 07:22:05;;;;;;;3.90;2.72;;;;;;;;;;4983702;28;20035;-47
2023/05/30 07:24:31;;;;;;;8.73;2.72;;;;;;;;;;4984747;28;20054;-46
2023/05/30 07:26:56;;;;;;;8.27;2.97;;;;;;;;;;4986054;28;20115;-46
2023/05/30 07:29:21;;;;;;;3.10;2.90;;;;;;;;;;4981435;28;20032;-51
2023/05/30 07:31:47;;;;;;;5.15;2.90;;;;;;;;;;4985288;28;20117;-48
2023/05/30 07:34:12;;;;;;;3.20;2.90;;;;;;;;;;4985222;28;20034;-46
2023/05/30 07:36:38;;;;;;;3.53;2.45;;;;;;;;;;4983060;28;20839;-52
2023/05/30 07:39:03;;;;;;;4.55;2.47;;;;;;;;;;4985100;28;20117;-50
2023/05/30 07:41:29;;;;;;;4.05;3.00;;;;;;;;;;4983210;28;20480;-47
2023/05/30 07:43:54;;;;;;;5.25;2.80;;;;;;;;;;4984206;28;20030;-50
2023/05/30 07:46:20;;;;;;;4.30;2.83;;;;;;;;;;4984549;28;20074;-45
2023/05/30 07:48:45;;;;;;;4.95;3.10;;;;;;;;;;4984403;28;20097;-50
2023/05/30 07:51:12;;;;;;;3.20;3.00;;;;;;;;;;4985739;28;20043;-44
2023/05/30 07:53:38;;;;;;;5.72;3.08;;;;;;;;;;4984553;28;20033;-53
2023/05/30 07:56:03;;;;;;;5.57;3.05;;;;;;;;;;4979436;28;20043;-45
2023/05/30 07:58:28;;;;;;;6.43;2.90;;;;;;;;;;4984771;28;20399;-49
2023/05/30 08:00:54;;;;;;;4.25;2.97;;;;;;;;;;4985450;28;20046;-50
2023/05/30 08:03:20;;;;;;;3.30;3.00;;;;;;;;;;5019720;28;20049;-50
2023/05/30 08:05:51;;;;;;;3.22;2.92;;;;;;;;;;4984351;28;20053;-48
2023/05/30 08:08:19;;;;;;;3.40;3.10;;;;;;;;;;4979694;28;20035;-46
2023/05/30 08:10:45;;;;;;;5.38;3.55;;;;;;;;;;4980840;28;20034;-49
2023/05/30 08:13:13;;;;;;;6.78;3.05;;;;;;;;;;4981064;28;20034;-52
2023/05/30 08:15:39;;;;;;;5.05;3.20;;;;;;;;;;4982684;28;20030;-52
2023/05/30 08:18:04;;;;;;;9.10;2.88;;;;;;;;;;4983703;28;20096;-50
2023/05/30 08:20:30;;;;;;;8.25;3.10;;;;;;;;;;4983829;28;20069;-50
2023/05/30 08:22:55;;;;;;;5.47;2.83;;;;;;;;;;4983570;28;20022;-51
2023/05/30 08:25:23;;;;;;;8.43;3.13;;;;;;;;;;4985856;28;20064;-51
2023/05/30 08:27:50;;;;;;;5.47;3.08;;;;;;;;;;4979879;28;20133;-52
2023/05/30 08:30:15;;;;;;;8.57;3.25;;;;;;;;;;4985105;28;20092;-46
2023/05/30 08:32:40;;;;;;;3.05;2.75;;;;;;;;;;4983213;28;20038;-46
2023/05/30 08:35:08;;;;;;;7.05;3.00;;;;;;;;;;4984063;28;20037;-45
2023/05/30 08:37:33;;;;;;;4.03;3.38;;;;;;;;;;4985741;28;20046;-44
2023/05/30 08:39:58;;;;;;;5.65;3.10;;;;;;;;;;4981506;28;20037;-44
2023/05/30 08:42:24;;;;;;;5.03;3.22;;;;;;;;;;4984959;28;20474;-45
2023/05/30 08:44:49;;;;;;;3.30;3.00;;;;;;;;;;4983016;28;20031;-49
2023/05/30 08:47:16;;;;;;;3.22;3.03;;;;;;;;;;4985480;28;20050;-48
2023/05/30 08:49:43;;;;;;;9.55;3.30;;;;;;;;;;4980220;28;20504;-44
2023/05/30 08:52:13;;;;;;;6.35;3.10;;;;;;;;;;4982396;28;20050;-45
2023/05/30 08:55:01;;;;;;;5.78;3.47;;;;;;;;;;4983706;28;20471;-46
2023/05/30 08:57:33;;;;;;;3.65;3.45;;;;;;;;;;4982652;28;20407;-49
2023/05/30 09:00:00;;;;;;;3.45;3.10;;;;;;;;;;4980741;28;20549;-45
2023/05/30 09:02:27;;;;;;;3.90;3.60;;;;;;;;;;4980709;28;20030;-44
2023/05/30 09:04:56;;;;;;;5.20;3.58;;;;;;;;;;4984223;28;20023;-45
2023/05/30 09:07:22;;;;;;;4.00;3.60;;;;;;;;;;4983026;28;20604;-46
2023/05/30 09:09:50;;;;;;;3.97;3.58;;;;;;;;;;4981520;28;20105;-47
2023/05/30 09:12:15;;;;;;;5.72;4.03;;;;;;;;;;4981361;28;20062;-45
2023/05/30 09:14:41;;;;;;;4.75;4.18;;;;;;;;;;4983211;28;20420;-44
2023/05/30 09:17:06;;;;;;;9.23;3.95;;;;;;;;;;4982961;28;20089;-44
2023/05/30 09:19:32;;;;;;;5.47;3.92;;;;;;;;;;4983972;28;20479;-45
2023/05/30 09:21:58;;;;;;;8.73;4.80;;;;;;;;;;4980232;28;20221;-47
2023/05/30 09:24:43;;;;;;;6.25;3.85;;;;;;;;;;4983855;28;20031;-44
2023/05/30 09:27:09;;;;;;;6.38;4.40;;;;;;;;;;4983591;28;20070;-44
2023/05/30 09:29:42;;;;;;;4.88;4.43;;;;;;;;;;4984184;28;20066;-46
2023/05/30 09:32:09;;;;;;;10.05;4.40;;;;;;;;;;4983256;28;20407;-48
2023/05/30 09:34:34;;;;;;;6.90;4.30;;;;;;;;;;4985276;28;20073;-44
2023/05/30 09:37:04;;;;;;;7.63;4.38;;;;;;;;;;4980490;28;20038;-44
2023/05/30 09:39:29;;;;;;;6.38;4.57;;;;;;;;;;4983620;28;20391;-44
2023/05/30 09:41:56;;;;;;;5.22;4.55;;;;;;;;;;4982236;28;20038;-45
2023/05/30 09:44:22;;;;;;;6.85;4.05;;;;;;;;;;4982194;28;20026;-45
2023/05/30 09:46:54;;;;;;;9.73;4.47;;;;;;;;;;4980328;28;20125;-46
2023/05/30 09:49:20;;;;;;;6.18;4.30;;;;;;;;;;4985920;28;20376;-43
2023/05/30 09:51:45;;;;;;;8.60;4.25;;;;;;;;;;4982284;28;20045;-44
2023/05/30 09:54:12;;;;;;;6.70;4.47;;;;;;;;;;4981467;28;20056;-44
2023/05/30 09:56:43;;;;;;;5.55;4.28;;;;;;;;;;4983650;28;20089;-45
2023/05/30 09:59:13;;;;;;;5.10;4.40;;;;;;;;;;4983093;28;20031;-44
2023/05/30 10:01:47;;;;;;;5.28;4.57;;;;;;;;;;4985077;28;20499;-45
2023/05/30 10:04:13;;;;;;;4.95;4.45;;;;;;;;;;4989068;28;20124;-44
2023/05/30 10:06:44;;;;;;;8.35;4.75;;;;;;;;;;4987004;28;20125;-46
2023/05/30 10:09:11;;;;;;;5.38;4.22;;;;;;;;;;4989361;28;20160;-47
2023/05/30 10:11:38;;;;;;;6.88;4.82;;;;;;;;;;4982721;28;20046;-45
2023/05/30 10:14:04;;;;;;;9.75;5.00;;;;;;;;;;4985644;28;20493;-49
2023/05/30 10:16:33;;;;;;;5.50;5.00;;;;;;;;;;4985887;28;20443;-44
2023/05/30 10:19:01;;;;;;;9.40;4.63;;;;;;;;;;4986053;28;20042;-45
2023/05/30 10:21:29;;;;;;;6.82;4.22;;;;;;;;;;4987604;28;20035;-47
2023/05/30 10:23:55;;;;;;;5.50;4.32;;;;;;;;;;4984232;28;20427;-47
2023/05/30 10:26:26;;;;;;;6.95;4.22;;;;;;;;;;4981353;28;20043;-44
2023/05/30 10:28:53;;;;;;;;;;;;;;;;;;4986484;28;20073;-44
2023/05/30 10:31:19;;;;;;;7.00;4.10;;;;;;;;;;4986158;28;20008;-44
2023/05/30 10:33:49;;;;;;;8.27;4.43;;;;;;;;;;4985373;28;20030;-45
2023/05/30 10:36:14;;;;;;;4.38;3.85;;;;;;;;;;4987179;28;20042;-47
2023/05/30 10:38:47;;;;;;;5.80;4.28;;;;;;;;;;4984106;28;20018;-44
2023/05/30 10:41:38;;;;;;;9.00;4.60;;;;;;;;;;4985921;28;20503;-44
2023/05/30 10:44:19;;;;;;;5.45;4.20;;;;;;;;;;4979726;28;20053;-45
2023/05/30 10:47:14;;;;;;;5.45;4.30;;;;;;;;;;4985362;28;20041;-46
2023/05/30 10:49:40;;;;;;;7.22;4.47;;;;;;;;;;4985359;28;20121;-47
2023/05/30 10:52:09;;;;;;;5.32;4.80;;;;;;;;;;4982152;28;20088;-47
2023/05/30 10:54:36;;;;;;;5.72;4.28;;;;;;;;;;5015112;28;20494;-44
2023/05/30 10:57:27;;;;;;;5.20;4.57;;;;;;;;;;4985960;28;20050;-49
2023/05/30 10:59:59;;;;;;;7.97;4.22;;;;;;;;;;4986541;28;20076;-47
2023/05/30 11:02:38;;;;;;;5.25;4.40;;;;;;;;;;4985921;28;20770;-47
2023/05/30 11:05:09;;;;;;;4.82;4.32;;;;;;;;;;4982620;28;20443;-50
2023/05/30 11:07:40;;;;;;;5.05;4.13;;;;;;;;;;4987448;28;20806;-50
2023/05/30 11:10:06;;;;;;;6.25;4.50;;;;;;;;;;4985432;28;20053;-47
2023/05/30 11:12:32;;;;;;;6.28;4.53;;;;;;;;;;4986101;28;20034;-46
2023/05/30 11:14:59;;;;;;;5.55;4.50;;;;;;;;;;4987170;28;20031;-48
2023/05/30 11:17:33;;;;;;;9.88;4.60;;;;;;;;;;4980588;28;20074;-46
2023/05/30 11:20:21;;;;;;;7.38;4.53;;;;;;;;;;4987280;28;20027;-44
2023/05/30 11:23:02;;;;;;;6.82;4.10;;;;;;;;;;4983681;28;20047;-45
2023/05/30 11:25:32;;;;;;;7.65;4.53;;;;;;;;;;4983836;28;20041;-46
2023/05/30 11:28:03;;;;;;;6.47;4.70;;;;;;;;;;4983435;28;20048;-46
2023/05/30 11:30:38;;;;;;;6.38;4.85;;;;;;;;;;4986471;28;20026;-44
2023/05/30 11:33:10;;;;;;;4.68;4.28;;;;;;;;;;4985289;28;20022;-43
2023/05/30 11:35:37;;;;;;;5.32;4.18;;;;;;;;;;4980461;28;20404;-46
2023/05/30 11:38:02;;;;;;;5.65;4.40;;;;;;;;;;4982267;28;20125;-48
2023/05/30 11:40:31;;;;;;;8.30;4.60;;;;;;;;;;4986922;28;20575;-44
2023/05/30 11:42:56;;;;;;;7.30;4.57;;;;;;;;;;4984051;28;20029;-47
2023/05/30 11:45:26;;;;;;;5.50;4.57;;;;;;;;;;4984641;28;21627;-44
2023/05/30 11:47:51;;;;;;;5.80;4.60;;;;;;;;;;4985661;28;20038;-43
2023/05/30 11:50:20;;;;;;;6.35;4.40;;;;;;;;;;4984999;28;20034;-47
2023/05/30 11:52:46;;;;;;;8.07;4.63;;;;;;;;;;4987317;28;20031;-47
2023/05/30 11:55:12;;;;;;;5.00;4.25;;;;;;;;;;4982079;28;20041;-49
2023/05/30 11:57:38;;;;;;;5.65;4.25;;;;;;;;;;4982634;28;20074;-48
2023/05/30 12:00:09;;;;;;;5.13;4.57;;;;;;;;;;4984533;28;20041;-48
2023/05/30 12:02:35;;;;;;;7.80;4.75;;;;;;;;;;4984188;28;20664;-44
2023/05/30 12:05:02;;;;;;;9.70;4.05;;;;;;;;;;4984117;28;20038;-46
2023/05/30 12:07:27;;;;;;;9.98;4.95;;;;;;;;;;4983310;28;20483;-45
2023/05/30 12:09:53;;;;;;;6.32;4.50;;;;;;;;;;4981821;28;20041;-44
2023/05/30 12:12:18;;;;;;;6.80;4.60;;;;;;;;;;4981784;28;20049;-44
2023/05/30 12:14:44;;;;;;;6.97;4.30;;;;;;;;;;4985931;28;20032;-50
2023/05/30 12:17:13;;;;;;;9.00;4.55;;;;;;;;;;4983261;28;20393;-45
2023/05/30 12:19:43;;;;;;;7.15;4.93;;;;;;;;;;4982444;28;20019;-45
2023/05/30 12:22:11;;;;;;;6.43;4.70;;;;;;;;;;4983349;28;20030;-48
2023/05/30 12:24:36;;;;;;;6.30;4.60;;;;;;;;;;4981922;28;20432;-46
2023/05/30 12:27:04;;;;;;;8.50;4.70;;;;;;;;;;4982710;28;20050;-46
2023/05/30 12:29:34;;;;;;;8.60;5.68;;;;;;;;;;4985840;28;20108;-44
2023/05/30 12:32:02;;;;;;;7.57;4.80;;;;;;;;;;4982060;28;20034;-47
2023/05/30 12:34:43;;;;;;;7.15;5.05;;;;;;;;;;4983350;28;20018;-44
2023/05/30 12:37:10;;;;;;;;;;;;;;;;;;4981869;28;20038;-46
2023/05/30 12:39:47;;;;;;;10.90;4.50;;;;;;;;;;4983674;28;19929;-49
2023/05/30 12:42:12;;;;;;;5.13;4.70;;;;;;;;;;4983599;28;20057;-46
2023/05/30 12:44:48;;;;;;;6.35;4.70;;;;;;;;;;4981680;28;20031;-46
2023/05/30 12:47:14;;;;;;;8.20;4.85;;;;;;;;;;4983771;28;20039;-47
2023/05/30 12:49:40;;;;;;;7.13;5.03;;;;;;;;;;4986194;28;20034;-46
2023/05/30 12:52:06;;;;;;;6.05;5.00;;;;;;;;;;4985330;28;20127;-44
2023/05/30 12:54:32;;;;;;;8.85;4.80;;;;;;;;;;4985997;28;20026;-43
2023/05/30 12:56:58;;;;;;;6.20;5.10;;;;;;;;;;4980238;28;20053;-45
2023/05/30 12:59:23;;;;;;;8.48;4.85;;;;;;;;;;4983845;28;20026;-47
2023/05/30 13:01:48;;;;;;;4.90;4.40;;;;;;;;;;4986546;28;20036;-45
2023/05/30 13:04:14;;;;;;;5.80;4.90;;;;;;;;;;4984976;28;20050;-50
2023/05/30 13:06:39;;;;;;;5.82;4.85;;;;;;;;;;4983242;28;20050;-46
2023/05/30 13:09:06;;;;;;;6.43;5.28;;;;;;;;;;4980568;28;20026;-45
2023/05/30 13:11:32;;;;;;;10.45;4.85;;;;;;;;;;4982179;28;20038;-44
2023/05/30 13:13:57;;;;;;;6.72;5.05;;;;;;;;;;4985179;28;20030;-49
2023/05/30 13:16:23;;;;;;;5.70;4.82;;;;;;;;;;4985449;28;20050;-46
2023/05/30 13:18:48;;;;;;;6.32;4.60;;;;;;;;;;4983279;28;20045;-45
2023/05/30 13:21:13;;;;;;;5.30;4.45;;;;;;;;;;4983149;28;20045;-45
2023/05/30 13:23:39;;;;;;;5.15;4.15;;;;;;;;;;4982664;28;20030;-44
2023/05/30 13:26:04;;;;;;;7.53;4.78;;;;;;;;;;4978859;28;20046;-44
2023/05/30 13:28:31;;;;;;;11.13;5.05;;;;;;;;;;4980964;28;20636;-44
2023/05/30 13:30:56;;;;;;;7.57;4.72;;;;;;;;;;4980973;28;20050;-45
2023/05/30 13:33:24;;;;;;;7.03;4.40;;;;;;;;;;4983462;28;20215;-48
2023/05/30 13:35:49;;;;;;;9.05;5.15;;;;;;;;;;4985464;28;20042;-47
2023/05/30 13:38:15;;;;;;;9.82;5.00;;;;;;;;;;4987697;28;20273;-44
2023/05/30 13:40:41;;;;;;;5.43;4.85;;;;;;;;;;4988618;28;20061;-50
2023/05/30 13:43:06;;;;;;;6.50;4.55;;;;;;;;;;4984624;28;20523;-48
2023/05/30 13:45:32;;;;;;;9.55;4.47;;;;;;;;;;4980550;28;20104;-49
2023/05/30 13:47:57;;;;;;;5.43;4.88;;;;;;;;;;4988492;28;20035;-43
2023/05/30 13:50:22;;;;;;;7.45;5.45;;;;;;;;;;4985526;28;20030;-43
2023/05/30 13:52:48;;;;;;;6.82;4.88;;;;;;;;;;4989552;28;20037;-44
2023/05/30 13:55:13;;;;;;;7.75;4.18;;;;;;;;;;4985400;28;20031;-46
2023/05/30 13:57:39;;;;;;;6.97;4.85;;;;;;;;;;5014752;28;20403;-46
2023/05/30 14:00:05;;;;;;;7.40;5.03;;;;;;;;;;4981543;28;20031;-47
2023/05/30 14:02:31;;;;;;;9.50;5.22;;;;;;;;;;4984533;28;20062;-46
2023/05/30 14:04:56;;;;;;;6.00;4.88;;;;;;;;;;4988377;28;20133;-47
2023/05/30 14:07:22;;;;;;;7.85;5.07;;;;;;;;;;4985515;28;20795;-44
2023/05/30 14:09:47;;;;;;;12.40;5.10;;;;;;;;;;4987079;28;20031;-44
2023/05/30 14:12:13;;;;;;;8.18;4.65;;;;;;;;;;4986882;28;20038;-45
2023/05/30 14:14:38;;;;;;;6.90;4.43;;;;;;;;;;4986287;28;20022;-52
2023/05/30 14:17:04;;;;;;;10.52;5.00;;;;;;;;;;4983901;28;20066;-47
2023/05/30 14:19:31;;;;;;;11.88;4.88;;;;;;;;;;4989379;28;20076;-46
2023/05/30 14:21:56;;;;;;;7.18;4.95;;;;;;;;;;4983986;28;20036;-46
2023/05/30 14:24:22;;;;;;;9.20;4.97;;;;;;;;;;4983297;28;20034;-49
2023/05/30 14:26:47;;;;;;;11.18;4.75;;;;;;;;;;4987054;28;20051;-46
2023/05/30 14:29:13;;;;;;;6.70;4.70;;;;;;;;;;4988011;28;20476;-45
2023/05/30 14:31:38;;;;;;;9.73;4.72;;;;;;;;;;4987951;28;20038;-50
2023/05/30 14:34:04;;;;;;;5.47;4.97;;;;;;;;;;4986326;28;20038;-46
2023/05/30 14:36:29;;;;;;;6.70;4.55;;;;;;;;;;4988127;28;20061;-46
2023/05/30 14:38:55;;;;;;;7.78;4.18;;;;;;;;;;4984921;28;20461;-44
2023/05/30 14:41:21;;;;;;;10.18;4.60;;;;;;;;;;4982161;28;20042;-43
2023/05/30 14:43:46;;;;;;;6.95;4.10;;;;;;;;;;4983265;28;20070;-45